sensor_id;sensor_type;location;lat;lon;timestamp;P1;durP1;ratioP1;P2;durP2;ratioP2
24030;SDS011;12240;51.142;22.486;2023-04-07T00:00:11;33.10;;;14.60;;
24030;SDS011;12240;51.142;22.486;2023-04-07T00:02:40;32.55;;;13.15;;
24030;SDS011;12240;51.142;22.486;2023-04-07T00:05:11;31.40;;;12.70;;
24030;SDS011;12240;51.142;22.486;2023-04-07T00:07:39;33.40;;;12.93;;
24030;SDS011;12240;51.142;22.486;2023-04-07T00:10:22;33.10;;;13.52;;
24030;SDS011;12240;51.142;22.486;2023-04-07T00:12:51;31.10;;;13.13;;
24030;SDS011;12240;51.142;22.486;2023-04-07T00:15:20;26.27;;;11.07;;
24030;SDS011;12240;51.142;22.486;2023-04-07T00:17:48;31.02;;;13.95;;
24030;SDS011;12240;51.142;22.486;2023-04-07T00:20:16;32.10;;;14.15;;
24030;SDS011;12240;51.142;22.486;2023-04-07T00:22:45;35.42;;;14.98;;
24030;SDS011;12240;51.142;22.486;2023-04-07T00:25:14;27.00;;;12.48;;
24030;SDS011;12240;51.142;22.486;2023-04-07T00:27:42;41.08;;;16.05;;
24030;SDS011;12240;51.142;22.486;2023-04-07T00:30:10;35.45;;;14.38;;
24030;SDS011;12240;51.142;22.486;2023-04-07T00:32:38;33.15;;;13.13;;
24030;SDS011;12240;51.142;22.486;2023-04-07T00:35:07;32.28;;;12.88;;
24030;SDS011;12240;51.142;22.486;2023-04-07T00:37:37;33.25;;;14.80;;
24030;SDS011;12240;51.142;22.486;2023-04-07T00:40:05;31.98;;;13.80;;
24030;SDS011;12240;51.142;22.486;2023-04-07T00:42:34;29.83;;;13.80;;
24030;SDS011;12240;51.142;22.486;2023-04-07T00:45:02;31.65;;;14.43;;
24030;SDS011;12240;51.142;22.486;2023-04-07T00:47:32;32.50;;;14.50;;
24030;SDS011;12240;51.142;22.486;2023-04-07T00:50:02;32.15;;;14.38;;
24030;SDS011;12240;51.142;22.486;2023-04-07T00:52:31;33.60;;;13.95;;
24030;SDS011;12240;51.142;22.486;2023-04-07T00:55:00;33.90;;;14.57;;
24030;SDS011;12240;51.142;22.486;2023-04-07T00:57:29;29.20;;;13.27;;
24030;SDS011;12240;51.142;22.486;2023-04-07T00:59:58;32.38;;;13.60;;
24030;SDS011;12240;51.142;22.486;2023-04-07T01:05:16;31.25;;;13.18;;
24030;SDS011;12240;51.142;22.486;2023-04-07T01:08:08;38.42;;;15.05;;
24030;SDS011;12240;51.142;22.486;2023-04-07T01:13:57;34.70;;;13.00;;
24030;SDS011;12240;51.142;22.486;2023-04-07T01:16:49;26.77;;;12.55;;
24030;SDS011;12240;51.142;22.486;2023-04-07T01:22:27;30.52;;;12.57;;
24030;SDS011;12240;51.142;22.486;2023-04-07T01:30:30;24.27;;;10.77;;
24030;SDS011;12240;51.142;22.486;2023-04-07T01:33:03;29.40;;;13.43;;
24030;SDS011;12240;51.142;22.486;2023-04-07T01:35:34;30.98;;;13.07;;
24030;SDS011;12240;51.142;22.486;2023-04-07T01:38:03;31.20;;;13.93;;
24030;SDS011;12240;51.142;22.486;2023-04-07T01:40:33;26.70;;;12.52;;
24030;SDS011;12240;51.142;22.486;2023-04-07T01:43:04;29.20;;;13.27;;
24030;SDS011;12240;51.142;22.486;2023-04-07T01:45:34;28.80;;;14.27;;
24030;SDS011;12240;51.142;22.486;2023-04-07T01:48:06;35.90;;;15.40;;
24030;SDS011;12240;51.142;22.486;2023-04-07T01:50:35;33.70;;;15.65;;
24030;SDS011;12240;51.142;22.486;2023-04-07T01:53:05;34.35;;;15.43;;
24030;SDS011;12240;51.142;22.486;2023-04-07T01:55:34;34.17;;;15.75;;
24030;SDS011;12240;51.142;22.486;2023-04-07T01:58:07;41.10;;;17.08;;
24030;SDS011;12240;51.142;22.486;2023-04-07T02:00:39;39.72;;;17.73;;
24030;SDS011;12240;51.142;22.486;2023-04-07T02:03:13;37.88;;;16.95;;
24030;SDS011;12240;51.142;22.486;2023-04-07T02:05:51;36.88;;;15.73;;
24030;SDS011;12240;51.142;22.486;2023-04-07T02:08:27;33.53;;;15.20;;
24030;SDS011;12240;51.142;22.486;2023-04-07T02:10:59;32.90;;;14.63;;
24030;SDS011;12240;51.142;22.486;2023-04-07T02:13:33;27.33;;;13.68;;
24030;SDS011;12240;51.142;22.486;2023-04-07T02:16:05;29.70;;;13.77;;
24030;SDS011;12240;51.142;22.486;2023-04-07T02:18:35;29.20;;;13.47;;
24030;SDS011;12240;51.142;22.486;2023-04-07T02:21:04;28.77;;;13.15;;
24030;SDS011;12240;51.142;22.486;2023-04-07T02:23:35;30.45;;;14.00;;
24030;SDS011;12240;51.142;22.486;2023-04-07T02:26:06;31.02;;;14.23;;
24030;SDS011;12240;51.142;22.486;2023-04-07T02:28:39;28.48;;;13.52;;
24030;SDS011;12240;51.142;22.486;2023-04-07T02:31:07;31.83;;;14.07;;
24030;SDS011;12240;51.142;22.486;2023-04-07T02:33:35;30.30;;;13.90;;
24030;SDS011;12240;51.142;22.486;2023-04-07T02:36:03;27.23;;;13.70;;
24030;SDS011;12240;51.142;22.486;2023-04-07T02:38:31;29.58;;;14.40;;
24030;SDS011;12240;51.142;22.486;2023-04-07T02:40:59;29.63;;;13.65;;
24030;SDS011;12240;51.142;22.486;2023-04-07T02:43:28;23.08;;;11.32;;
24030;SDS011;12240;51.142;22.486;2023-04-07T02:45:57;32.95;;;14.73;;
24030;SDS011;12240;51.142;22.486;2023-04-07T02:48:25;37.80;;;16.17;;
24030;SDS011;12240;51.142;22.486;2023-04-07T02:50:53;35.38;;;16.13;;
24030;SDS011;12240;51.142;22.486;2023-04-07T02:53:20;27.02;;;11.93;;
24030;SDS011;12240;51.142;22.486;2023-04-07T02:55:49;35.28;;;15.52;;
24030;SDS011;12240;51.142;22.486;2023-04-07T02:58:17;29.73;;;14.93;;
24030;SDS011;12240;51.142;22.486;2023-04-07T03:00:46;26.88;;;13.75;;
24030;SDS011;12240;51.142;22.486;2023-04-07T03:03:20;32.47;;;15.95;;
24030;SDS011;12240;51.142;22.486;2023-04-07T03:06:12;30.48;;;13.70;;
24030;SDS011;12240;51.142;22.486;2023-04-07T03:08:52;32.78;;;14.82;;
24030;SDS011;12240;51.142;22.486;2023-04-07T03:11:20;31.20;;;14.77;;
24030;SDS011;12240;51.142;22.486;2023-04-07T03:13:48;32.42;;;15.40;;
24030;SDS011;12240;51.142;22.486;2023-04-07T03:16:17;31.05;;;13.85;;
24030;SDS011;12240;51.142;22.486;2023-04-07T03:18:58;29.45;;;13.82;;
24030;SDS011;12240;51.142;22.486;2023-04-07T03:21:26;28.83;;;13.25;;
24030;SDS011;12240;51.142;22.486;2023-04-07T03:23:55;36.53;;;17.00;;
24030;SDS011;12240;51.142;22.486;2023-04-07T03:26:23;35.22;;;15.95;;
24030;SDS011;12240;51.142;22.486;2023-04-07T03:28:50;30.88;;;14.90;;
24030;SDS011;12240;51.142;22.486;2023-04-07T03:31:19;27.20;;;12.80;;
24030;SDS011;12240;51.142;22.486;2023-04-07T03:33:50;34.88;;;17.35;;
24030;SDS011;12240;51.142;22.486;2023-04-07T03:36:19;32.47;;;14.45;;
24030;SDS011;12240;51.142;22.486;2023-04-07T03:38:47;32.42;;;16.48;;
24030;SDS011;12240;51.142;22.486;2023-04-07T03:41:17;26.95;;;12.98;;
24030;SDS011;12240;51.142;22.486;2023-04-07T03:43:46;28.10;;;13.57;;
24030;SDS011;12240;51.142;22.486;2023-04-07T03:46:14;33.03;;;15.70;;
24030;SDS011;12240;51.142;22.486;2023-04-07T03:48:43;29.58;;;14.77;;
24030;SDS011;12240;51.142;22.486;2023-04-07T03:51:12;29.08;;;13.95;;
24030;SDS011;12240;51.142;22.486;2023-04-07T03:53:40;26.30;;;12.02;;
24030;SDS011;12240;51.142;22.486;2023-04-07T03:56:19;24.45;;;11.90;;
24030;SDS011;12240;51.142;22.486;2023-04-07T03:58:50;27.00;;;13.82;;
24030;SDS011;12240;51.142;22.486;2023-04-07T04:01:32;24.40;;;11.73;;
24030;SDS011;12240;51.142;22.486;2023-04-07T04:04:07;22.98;;;11.45;;
24030;SDS011;12240;51.142;22.486;2023-04-07T04:06:35;26.48;;;12.98;;
24030;SDS011;12240;51.142;22.486;2023-04-07T04:09:24;22.08;;;9.73;;
24030;SDS011;12240;51.142;22.486;2023-04-07T04:11:52;25.98;;;12.25;;
24030;SDS011;12240;51.142;22.486;2023-04-07T04:14:20;25.02;;;13.40;;
24030;SDS011;12240;51.142;22.486;2023-04-07T04:16:56;24.10;;;11.50;;
24030;SDS011;12240;51.142;22.486;2023-04-07T04:19:32;24.70;;;12.20;;
24030;SDS011;12240;51.142;22.486;2023-04-07T04:22:05;23.05;;;11.48;;
24030;SDS011;12240;51.142;22.486;2023-04-07T04:24:40;29.80;;;12.95;;
24030;SDS011;12240;51.142;22.486;2023-04-07T04:27:08;25.70;;;13.07;;
24030;SDS011;12240;51.142;22.486;2023-04-07T04:29:37;20.30;;;9.88;;
24030;SDS011;12240;51.142;22.486;2023-04-07T04:32:08;22.33;;;10.57;;
24030;SDS011;12240;51.142;22.486;2023-04-07T04:34:36;23.42;;;10.30;;
24030;SDS011;12240;51.142;22.486;2023-04-07T04:37:05;49.40;;;21.27;;
24030;SDS011;12240;51.142;22.486;2023-04-07T04:39:34;37.13;;;20.00;;
24030;SDS011;12240;51.142;22.486;2023-04-07T04:42:04;64.93;;;28.88;;
24030;SDS011;12240;51.142;22.486;2023-04-07T04:44:35;58.38;;;24.02;;
24030;SDS011;12240;51.142;22.486;2023-04-07T04:47:05;67.13;;;26.50;;
24030;SDS011;12240;51.142;22.486;2023-04-07T04:49:35;106.80;;;36.72;;
24030;SDS011;12240;51.142;22.486;2023-04-07T04:52:04;77.30;;;25.92;;
24030;SDS011;12240;51.142;22.486;2023-04-07T04:54:38;152.23;;;41.85;;
24030;SDS011;12240;51.142;22.486;2023-04-07T04:57:08;121.22;;;38.03;;
24030;SDS011;12240;51.142;22.486;2023-04-07T04:59:38;95.95;;;32.78;;
24030;SDS011;12240;51.142;22.486;2023-04-07T05:02:06;52.13;;;18.23;;
24030;SDS011;12240;51.142;22.486;2023-04-07T05:04:34;75.43;;;26.08;;
24030;SDS011;12240;51.142;22.486;2023-04-07T05:07:24;61.38;;;22.88;;
24030;SDS011;12240;51.142;22.486;2023-04-07T05:09:55;69.35;;;24.98;;
24030;SDS011;12240;51.142;22.486;2023-04-07T05:12:23;59.60;;;21.88;;
24030;SDS011;12240;51.142;22.486;2023-04-07T05:14:57;36.50;;;15.45;;
24030;SDS011;12240;51.142;22.486;2023-04-07T05:17:25;25.08;;;12.07;;
24030;SDS011;12240;51.142;22.486;2023-04-07T05:19:58;22.67;;;11.18;;
24030;SDS011;12240;51.142;22.486;2023-04-07T05:22:36;20.85;;;10.85;;
24030;SDS011;12240;51.142;22.486;2023-04-07T05:25:07;20.35;;;10.35;;
24030;SDS011;12240;51.142;22.486;2023-04-07T05:27:38;23.60;;;11.05;;
24030;SDS011;12240;51.142;22.486;2023-04-07T05:30:12;22.48;;;11.55;;
24030;SDS011;12240;51.142;22.486;2023-04-07T05:32:42;25.98;;;11.38;;
24030;SDS011;12240;51.142;22.486;2023-04-07T05:35:22;28.88;;;11.73;;
24030;SDS011;12240;51.142;22.486;2023-04-07T05:37:54;26.13;;;11.85;;
24030;SDS011;12240;51.142;22.486;2023-04-07T05:40:23;23.00;;;11.57;;
24030;SDS011;12240;51.142;22.486;2023-04-07T05:42:53;28.45;;;12.65;;
24030;SDS011;12240;51.142;22.486;2023-04-07T05:45:22;25.60;;;12.18;;
24030;SDS011;12240;51.142;22.486;2023-04-07T05:47:50;26.77;;;11.52;;
24030;SDS011;12240;51.142;22.486;2023-04-07T05:50:26;25.05;;;11.57;;
24030;SDS011;12240;51.142;22.486;2023-04-07T05:52:56;27.20;;;12.23;;
24030;SDS011;12240;51.142;22.486;2023-04-07T05:55:26;26.92;;;11.82;;
24030;SDS011;12240;51.142;22.486;2023-04-07T05:57:54;19.08;;;9.85;;
24030;SDS011;12240;51.142;22.486;2023-04-07T06:00:27;18.17;;;9.68;;
24030;SDS011;12240;51.142;22.486;2023-04-07T06:03:02;15.85;;;8.75;;
24030;SDS011;12240;51.142;22.486;2023-04-07T06:05:40;17.08;;;9.38;;
24030;SDS011;12240;51.142;22.486;2023-04-07T06:10:40;16.67;;;8.60;;
24030;SDS011;12240;51.142;22.486;2023-04-07T06:13:08;17.52;;;8.57;;
24030;SDS011;12240;51.142;22.486;2023-04-07T06:15:37;16.98;;;8.68;;
24030;SDS011;12240;51.142;22.486;2023-04-07T06:18:05;16.13;;;8.27;;
24030;SDS011;12240;51.142;22.486;2023-04-07T06:20:33;19.00;;;9.48;;
24030;SDS011;12240;51.142;22.486;2023-04-07T06:23:02;20.23;;;9.38;;
24030;SDS011;12240;51.142;22.486;2023-04-07T06:25:31;18.65;;;9.48;;
24030;SDS011;12240;51.142;22.486;2023-04-07T06:28:00;15.48;;;8.50;;
24030;SDS011;12240;51.142;22.486;2023-04-07T06:30:28;23.17;;;9.98;;
24030;SDS011;12240;51.142;22.486;2023-04-07T06:32:57;22.10;;;9.85;;
24030;SDS011;12240;51.142;22.486;2023-04-07T06:35:26;17.10;;;9.23;;
24030;SDS011;12240;51.142;22.486;2023-04-07T06:37:54;18.17;;;9.70;;
24030;SDS011;12240;51.142;22.486;2023-04-07T06:40:23;20.58;;;9.75;;
24030;SDS011;12240;51.142;22.486;2023-04-07T06:42:51;18.00;;;9.75;;
24030;SDS011;12240;51.142;22.486;2023-04-07T06:45:27;16.60;;;8.85;;
24030;SDS011;12240;51.142;22.486;2023-04-07T06:47:55;18.73;;;8.80;;
24030;SDS011;12240;51.142;22.486;2023-04-07T06:50:24;17.15;;;8.13;;
24030;SDS011;12240;51.142;22.486;2023-04-07T06:52:52;18.52;;;9.48;;
24030;SDS011;12240;51.142;22.486;2023-04-07T06:55:23;21.27;;;9.35;;
24030;SDS011;12240;51.142;22.486;2023-04-07T06:57:53;22.52;;;9.63;;
24030;SDS011;12240;51.142;22.486;2023-04-07T07:00:22;21.65;;;8.75;;
24030;SDS011;12240;51.142;22.486;2023-04-07T07:02:50;21.98;;;9.88;;
24030;SDS011;12240;51.142;22.486;2023-04-07T07:05:18;23.58;;;10.25;;
24030;SDS011;12240;51.142;22.486;2023-04-07T07:07:48;23.55;;;10.75;;
24030;SDS011;12240;51.142;22.486;2023-04-07T07:10:18;24.52;;;11.15;;
24030;SDS011;12240;51.142;22.486;2023-04-07T07:12:49;26.17;;;10.85;;
24030;SDS011;12240;51.142;22.486;2023-04-07T07:15:19;24.02;;;9.75;;
24030;SDS011;12240;51.142;22.486;2023-04-07T07:17:48;27.10;;;11.52;;
24030;SDS011;12240;51.142;22.486;2023-04-07T07:20:16;24.95;;;10.15;;
24030;SDS011;12240;51.142;22.486;2023-04-07T07:22:45;20.25;;;10.88;;
24030;SDS011;12240;51.142;22.486;2023-04-07T07:25:13;18.00;;;9.18;;
24030;SDS011;12240;51.142;22.486;2023-04-07T07:27:42;17.38;;;8.00;;
24030;SDS011;12240;51.142;22.486;2023-04-07T07:30:11;12.77;;;7.13;;
24030;SDS011;12240;51.142;22.486;2023-04-07T07:32:39;10.38;;;6.28;;
24030;SDS011;12240;51.142;22.486;2023-04-07T07:35:08;11.63;;;5.15;;
24030;SDS011;12240;51.142;22.486;2023-04-07T07:37:36;10.13;;;5.40;;
24030;SDS011;12240;51.142;22.486;2023-04-07T07:40:05;7.68;;;4.50;;
24030;SDS011;12240;51.142;22.486;2023-04-07T07:42:33;8.85;;;4.82;;
24030;SDS011;12240;51.142;22.486;2023-04-07T07:45:02;8.43;;;4.72;;
24030;SDS011;12240;51.142;22.486;2023-04-07T07:47:32;11.10;;;5.88;;
24030;SDS011;12240;51.142;22.486;2023-04-07T07:50:01;11.10;;;5.70;;
24030;SDS011;12240;51.142;22.486;2023-04-07T07:52:31;8.45;;;4.43;;
24030;SDS011;12240;51.142;22.486;2023-04-07T07:54:59;9.13;;;5.45;;
24030;SDS011;12240;51.142;22.486;2023-04-07T07:57:29;8.73;;;5.10;;
24030;SDS011;12240;51.142;22.486;2023-04-07T07:59:58;10.30;;;6.07;;
24030;SDS011;12240;51.142;22.486;2023-04-07T08:02:26;9.68;;;4.80;;
24030;SDS011;12240;51.142;22.486;2023-04-07T08:04:58;8.10;;;4.35;;
24030;SDS011;12240;51.142;22.486;2023-04-07T08:07:26;7.88;;;4.45;;
24030;SDS011;12240;51.142;22.486;2023-04-07T08:09:55;8.15;;;5.13;;
24030;SDS011;12240;51.142;22.486;2023-04-07T08:12:23;8.25;;;4.60;;
24030;SDS011;12240;51.142;22.486;2023-04-07T08:14:52;9.63;;;4.63;;
24030;SDS011;12240;51.142;22.486;2023-04-07T08:17:20;8.18;;;4.45;;
24030;SDS011;12240;51.142;22.486;2023-04-07T08:19:49;7.40;;;4.05;;
24030;SDS011;12240;51.142;22.486;2023-04-07T08:22:17;8.95;;;4.35;;
24030;SDS011;12240;51.142;22.486;2023-04-07T08:24:48;5.65;;;3.83;;
24030;SDS011;12240;51.142;22.486;2023-04-07T08:27:16;8.40;;;3.95;;
24030;SDS011;12240;51.142;22.486;2023-04-07T08:29:45;8.15;;;4.05;;
24030;SDS011;12240;51.142;22.486;2023-04-07T08:32:25;8.00;;;4.55;;
24030;SDS011;12240;51.142;22.486;2023-04-07T08:35:01;7.47;;;3.97;;
24030;SDS011;12240;51.142;22.486;2023-04-07T08:37:30;8.68;;;4.90;;
24030;SDS011;12240;51.142;22.486;2023-04-07T08:40:00;8.10;;;4.25;;
24030;SDS011;12240;51.142;22.486;2023-04-07T08:42:31;10.55;;;4.28;;
24030;SDS011;12240;51.142;22.486;2023-04-07T08:45:04;11.85;;;5.05;;
24030;SDS011;12240;51.142;22.486;2023-04-07T08:47:35;13.75;;;5.20;;
24030;SDS011;12240;51.142;22.486;2023-04-07T08:50:08;10.05;;;3.80;;
24030;SDS011;12240;51.142;22.486;2023-04-07T08:52:45;14.30;;;5.80;;
24030;SDS011;12240;51.142;22.486;2023-04-07T08:55:21;13.02;;;4.95;;
24030;SDS011;12240;51.142;22.486;2023-04-07T08:57:50;16.65;;;5.78;;
24030;SDS011;12240;51.142;22.486;2023-04-07T09:00:20;11.77;;;4.35;;
24030;SDS011;12240;51.142;22.486;2023-04-07T09:02:50;19.27;;;6.72;;
24030;SDS011;12240;51.142;22.486;2023-04-07T09:05:19;11.75;;;4.90;;
24030;SDS011;12240;51.142;22.486;2023-04-07T09:07:48;14.93;;;5.80;;
24030;SDS011;12240;51.142;22.486;2023-04-07T09:10:16;13.27;;;4.75;;
24030;SDS011;12240;51.142;22.486;2023-04-07T09:12:45;14.40;;;6.25;;
24030;SDS011;12240;51.142;22.486;2023-04-07T09:15:13;14.98;;;5.35;;
24030;SDS011;12240;51.142;22.486;2023-04-07T09:17:42;14.70;;;5.93;;
24030;SDS011;12240;51.142;22.486;2023-04-07T09:20:11;9.57;;;4.57;;
24030;SDS011;12240;51.142;22.486;2023-04-07T09:22:40;11.48;;;5.55;;
24030;SDS011;12240;51.142;22.486;2023-04-07T09:25:22;11.02;;;4.80;;
24030;SDS011;12240;51.142;22.486;2023-04-07T09:27:57;12.68;;;5.57;;
24030;SDS011;12240;51.142;22.486;2023-04-07T09:30:27;11.50;;;5.45;;
24030;SDS011;12240;51.142;22.486;2023-04-07T09:32:57;8.82;;;4.60;;
24030;SDS011;12240;51.142;22.486;2023-04-07T09:35:27;9.68;;;4.70;;
24030;SDS011;12240;51.142;22.486;2023-04-07T09:38:02;10.60;;;4.47;;
24030;SDS011;12240;51.142;22.486;2023-04-07T09:40:34;10.52;;;4.45;;
24030;SDS011;12240;51.142;22.486;2023-04-07T09:43:13;13.38;;;5.15;;
24030;SDS011;12240;51.142;22.486;2023-04-07T09:45:43;15.15;;;5.47;;
24030;SDS011;12240;51.142;22.486;2023-04-07T09:48:19;12.95;;;4.65;;
24030;SDS011;12240;51.142;22.486;2023-04-07T09:50:48;16.73;;;6.53;;
24030;SDS011;12240;51.142;22.486;2023-04-07T09:53:19;15.60;;;5.15;;
24030;SDS011;12240;51.142;22.486;2023-04-07T09:55:49;26.02;;;6.68;;
24030;SDS011;12240;51.142;22.486;2023-04-07T09:58:18;19.05;;;5.15;;
24030;SDS011;12240;51.142;22.486;2023-04-07T10:00:48;20.88;;;6.28;;
24030;SDS011;12240;51.142;22.486;2023-04-07T10:03:17;23.20;;;4.80;;
24030;SDS011;12240;51.142;22.486;2023-04-07T10:05:45;23.42;;;5.57;;
24030;SDS011;12240;51.142;22.486;2023-04-07T10:08:14;14.32;;;5.00;;
24030;SDS011;12240;51.142;22.486;2023-04-07T10:10:43;24.30;;;6.93;;
24030;SDS011;12240;51.142;22.486;2023-04-07T10:13:14;19.85;;;5.53;;
24030;SDS011;12240;51.142;22.486;2023-04-07T10:15:42;27.27;;;6.63;;
24030;SDS011;12240;51.142;22.486;2023-04-07T10:18:11;19.63;;;6.28;;
24030;SDS011;12240;51.142;22.486;2023-04-07T10:20:40;24.95;;;7.60;;
24030;SDS011;12240;51.142;22.486;2023-04-07T10:23:15;28.17;;;7.70;;
24030;SDS011;12240;51.142;22.486;2023-04-07T10:26:09;18.27;;;4.95;;
24030;SDS011;12240;51.142;22.486;2023-04-07T10:28:39;22.30;;;5.82;;
24030;SDS011;12240;51.142;22.486;2023-04-07T10:31:10;18.98;;;5.07;;
24030;SDS011;12240;51.142;22.486;2023-04-07T10:33:43;28.08;;;6.85;;
24030;SDS011;12240;51.142;22.486;2023-04-07T10:36:17;19.88;;;5.40;;
24030;SDS011;12240;51.142;22.486;2023-04-07T10:41:37;28.35;;;6.75;;
24030;SDS011;12240;51.142;22.486;2023-04-07T10:44:09;19.05;;;5.13;;
24030;SDS011;12240;51.142;22.486;2023-04-07T10:47:09;23.58;;;6.22;;
24030;SDS011;12240;51.142;22.486;2023-04-07T10:49:38;15.10;;;4.65;;
24030;SDS011;12240;51.142;22.486;2023-04-07T10:54:41;17.27;;;5.88;;
24030;SDS011;12240;51.142;22.486;2023-04-07T10:57:15;16.25;;;6.30;;
24030;SDS011;12240;51.142;22.486;2023-04-07T11:02:38;14.77;;;5.18;;
24030;SDS011;12240;51.142;22.486;2023-04-07T11:05:07;9.57;;;3.50;;
24030;SDS011;12240;51.142;22.486;2023-04-07T11:07:47;11.63;;;4.90;;
24030;SDS011;12240;51.142;22.486;2023-04-07T11:10:18;11.70;;;4.43;;
24030;SDS011;12240;51.142;22.486;2023-04-07T11:13:01;14.45;;;5.43;;
24030;SDS011;12240;51.142;22.486;2023-04-07T11:15:36;9.77;;;3.40;;
24030;SDS011;12240;51.142;22.486;2023-04-07T11:18:14;11.45;;;4.68;;
24030;SDS011;12240;51.142;22.486;2023-04-07T11:23:21;13.77;;;5.30;;
24030;SDS011;12240;51.142;22.486;2023-04-07T11:26:01;17.00;;;6.15;;
24030;SDS011;12240;51.142;22.486;2023-04-07T11:28:30;16.42;;;6.10;;
24030;SDS011;12240;51.142;22.486;2023-04-07T11:30:59;13.55;;;5.50;;
24030;SDS011;12240;51.142;22.486;2023-04-07T11:33:29;10.95;;;4.25;;
24030;SDS011;12240;51.142;22.486;2023-04-07T11:35:59;18.13;;;6.47;;
24030;SDS011;12240;51.142;22.486;2023-04-07T11:38:34;17.02;;;6.65;;
24030;SDS011;12240;51.142;22.486;2023-04-07T11:41:12;14.43;;;5.43;;
24030;SDS011;12240;51.142;22.486;2023-04-07T11:43:41;15.10;;;5.78;;
24030;SDS011;12240;51.142;22.486;2023-04-07T11:46:14;15.65;;;6.10;;
24030;SDS011;12240;51.142;22.486;2023-04-07T11:48:44;12.98;;;5.72;;
24030;SDS011;12240;51.142;22.486;2023-04-07T11:51:18;12.70;;;5.82;;
24030;SDS011;12240;51.142;22.486;2023-04-07T11:53:54;12.52;;;5.95;;
24030;SDS011;12240;51.142;22.486;2023-04-07T11:56:23;14.15;;;6.13;;
24030;SDS011;12240;51.142;22.486;2023-04-07T11:58:54;15.43;;;6.32;;
24030;SDS011;12240;51.142;22.486;2023-04-07T12:01:23;10.90;;;4.70;;
24030;SDS011;12240;51.142;22.486;2023-04-07T12:04:11;10.80;;;4.85;;
24030;SDS011;12240;51.142;22.486;2023-04-07T12:06:45;11.40;;;4.78;;
24030;SDS011;12240;51.142;22.486;2023-04-07T12:09:24;11.13;;;4.75;;
24030;SDS011;12240;51.142;22.486;2023-04-07T12:11:56;17.33;;;6.60;;
24030;SDS011;12240;51.142;22.486;2023-04-07T12:14:25;22.23;;;8.18;;
24030;SDS011;12240;51.142;22.486;2023-04-07T12:16:54;20.90;;;7.75;;
24030;SDS011;12240;51.142;22.486;2023-04-07T12:19:24;17.85;;;7.13;;
24030;SDS011;12240;51.142;22.486;2023-04-07T12:21:59;13.13;;;5.72;;
24030;SDS011;12240;51.142;22.486;2023-04-07T12:24:27;13.93;;;5.57;;
24030;SDS011;12240;51.142;22.486;2023-04-07T12:26:58;12.68;;;6.05;;
24030;SDS011;12240;51.142;22.486;2023-04-07T12:29:26;10.68;;;5.20;;
24030;SDS011;12240;51.142;22.486;2023-04-07T12:31:56;12.10;;;5.82;;
24030;SDS011;12240;51.142;22.486;2023-04-07T12:34:25;21.85;;;8.50;;
24030;SDS011;12240;51.142;22.486;2023-04-07T12:36:54;25.27;;;9.30;;
24030;SDS011;12240;51.142;22.486;2023-04-07T12:39:23;10.93;;;5.57;;
24030;SDS011;12240;51.142;22.486;2023-04-07T12:41:51;12.95;;;6.07;;
24030;SDS011;12240;51.142;22.486;2023-04-07T12:44:19;8.68;;;5.18;;
24030;SDS011;12240;51.142;22.486;2023-04-07T12:46:48;10.45;;;6.38;;
24030;SDS011;12240;51.142;22.486;2023-04-07T12:49:16;8.57;;;4.97;;
24030;SDS011;12240;51.142;22.486;2023-04-07T12:51:45;10.73;;;5.68;;
24030;SDS011;12240;51.142;22.486;2023-04-07T12:54:14;18.75;;;8.10;;
24030;SDS011;12240;51.142;22.486;2023-04-07T12:56:42;21.75;;;8.55;;
24030;SDS011;12240;51.142;22.486;2023-04-07T12:59:10;18.85;;;7.50;;
24030;SDS011;12240;51.142;22.486;2023-04-07T13:01:39;18.38;;;8.30;;
24030;SDS011;12240;51.142;22.486;2023-04-07T13:04:09;11.45;;;6.28;;
24030;SDS011;12240;51.142;22.486;2023-04-07T13:06:37;13.57;;;7.15;;
24030;SDS011;12240;51.142;22.486;2023-04-07T13:09:06;10.48;;;5.25;;
24030;SDS011;12240;51.142;22.486;2023-04-07T13:11:34;10.73;;;5.75;;
24030;SDS011;12240;51.142;22.486;2023-04-07T13:14:03;14.52;;;7.90;;
24030;SDS011;12240;51.142;22.486;2023-04-07T13:16:31;9.70;;;5.38;;
24030;SDS011;12240;51.142;22.486;2023-04-07T13:19:00;11.07;;;6.43;;
24030;SDS011;12240;51.142;22.486;2023-04-07T13:21:28;9.57;;;5.65;;
24030;SDS011;12240;51.142;22.486;2023-04-07T13:23:59;9.70;;;5.40;;
24030;SDS011;12240;51.142;22.486;2023-04-07T13:26:28;11.38;;;7.07;;
24030;SDS011;12240;51.142;22.486;2023-04-07T13:28:56;11.18;;;6.15;;
24030;SDS011;12240;51.142;22.486;2023-04-07T13:31:25;12.52;;;6.97;;
24030;SDS011;12240;51.142;22.486;2023-04-07T13:33:54;11.88;;;7.38;;
24030;SDS011;12240;51.142;22.486;2023-04-07T13:36:40;11.90;;;6.75;;
24030;SDS011;12240;51.142;22.486;2023-04-07T13:39:09;9.27;;;5.25;;
24030;SDS011;12240;51.142;22.486;2023-04-07T13:41:40;10.77;;;6.30;;
24030;SDS011;12240;51.142;22.486;2023-04-07T13:44:09;11.15;;;5.97;;
24030;SDS011;12240;51.142;22.486;2023-04-07T13:46:37;12.27;;;6.80;;
24030;SDS011;12240;51.142;22.486;2023-04-07T13:49:07;11.80;;;5.82;;
24030;SDS011;12240;51.142;22.486;2023-04-07T13:51:35;14.38;;;6.60;;
24030;SDS011;12240;51.142;22.486;2023-04-07T13:54:04;12.25;;;5.80;;
24030;SDS011;12240;51.142;22.486;2023-04-07T13:56:36;14.00;;;6.18;;
24030;SDS011;12240;51.142;22.486;2023-04-07T13:59:07;12.07;;;5.50;;
24030;SDS011;12240;51.142;22.486;2023-04-07T14:01:38;12.15;;;5.60;;
24030;SDS011;12240;51.142;22.486;2023-04-07T14:04:07;14.68;;;6.53;;
24030;SDS011;12240;51.142;22.486;2023-04-07T14:06:35;16.27;;;7.13;;
24030;SDS011;12240;51.142;22.486;2023-04-07T14:09:04;17.02;;;6.93;;
24030;SDS011;12240;51.142;22.486;2023-04-07T14:11:33;14.98;;;6.50;;
24030;SDS011;12240;51.142;22.486;2023-04-07T14:14:01;13.77;;;5.68;;
24030;SDS011;12240;51.142;22.486;2023-04-07T14:16:30;13.40;;;5.28;;
24030;SDS011;12240;51.142;22.486;2023-04-07T14:18:58;15.30;;;5.93;;
24030;SDS011;12240;51.142;22.486;2023-04-07T14:21:27;17.60;;;6.57;;
24030;SDS011;12240;51.142;22.486;2023-04-07T14:23:55;19.48;;;7.10;;
24030;SDS011;12240;51.142;22.486;2023-04-07T14:26:24;17.92;;;6.93;;
24030;SDS011;12240;51.142;22.486;2023-04-07T14:28:54;24.50;;;9.07;;
24030;SDS011;12240;51.142;22.486;2023-04-07T14:31:23;27.38;;;10.25;;
24030;SDS011;12240;51.142;22.486;2023-04-07T14:33:51;25.98;;;8.80;;
24030;SDS011;12240;51.142;22.486;2023-04-07T14:36:20;27.48;;;10.73;;
24030;SDS011;12240;51.142;22.486;2023-04-07T14:38:49;27.08;;;11.30;;
24030;SDS011;12240;51.142;22.486;2023-04-07T14:41:19;23.23;;;9.45;;
24030;SDS011;12240;51.142;22.486;2023-04-07T14:43:49;19.10;;;8.90;;
24030;SDS011;12240;51.142;22.486;2023-04-07T14:46:22;18.95;;;8.05;;
24030;SDS011;12240;51.142;22.486;2023-04-07T14:48:53;21.70;;;9.73;;
24030;SDS011;12240;51.142;22.486;2023-04-07T14:51:23;17.35;;;8.18;;
24030;SDS011;12240;51.142;22.486;2023-04-07T14:53:52;22.40;;;10.77;;
24030;SDS011;12240;51.142;22.486;2023-04-07T14:56:25;14.93;;;6.68;;
24030;SDS011;12240;51.142;22.486;2023-04-07T15:01:22;16.27;;;7.68;;
24030;SDS011;12240;51.142;22.486;2023-04-07T15:03:51;19.48;;;9.23;;
24030;SDS011;12240;51.142;22.486;2023-04-07T15:06:20;16.90;;;7.10;;
24030;SDS011;12240;51.142;22.486;2023-04-07T15:08:53;20.42;;;8.93;;